Tring-Jonction, Canada
Current Conditions -  °F | °C
As of 3:00 PM on Wednesday 28 Jan 2015 (Local Time) from CYQB Reporting Station
Broken Clouds Broken Clouds  
Wind Chill:   Ceiling: 24000
Heat Index: 18°   Visibility: 30mi
Dew Point:   Wind: 13mph
Humidity: 53%   Direction: 220°SW
Pressure: 30.04"   Gusts: NA
Location:  46.27°N, 71°W
Report Text: CYQB 282000Z 22011KT 30SM FEW110 BKN240 M08/M16 A3004 RMK AC1CI5 SLP178
Loading
Personal Weather Stations






























Interactive Weather Map New forecast layout! Learn more

10-Day Weather Forecast

Advertisements
Track Severe Weather on mobile